createdAt,value
2022-08-30T00:01:25.955Z,19.39
2022-08-30T00:06:30.825Z,19.33
2022-08-30T00:11:33.823Z,19.27
2022-08-30T00:16:36.704Z,19.14
2022-08-30T00:21:40.798Z,19.05
2022-08-30T00:26:43.697Z,18.99
2022-08-30T00:31:46.969Z,18.89
2022-08-30T00:36:49.921Z,18.86
2022-08-30T00:41:52.787Z,18.85
2022-08-30T00:46:55.813Z,18.84
2022-08-30T00:51:59.124Z,18.83
2022-08-30T00:57:03.525Z,18.82
2022-08-30T01:02:07.431Z,18.77
2022-08-30T01:07:10.597Z,18.70
2022-08-30T01:12:13.699Z,18.63
2022-08-30T01:17:21.299Z,18.54
2022-08-30T01:22:50.430Z,18.46
2022-08-30T01:28:05.614Z,18.41
2022-08-30T01:33:11.096Z,18.36
2022-08-30T01:38:16.187Z,18.31
2022-08-30T01:43:19.642Z,18.28
2022-08-30T01:48:22.590Z,18.25
2022-08-30T01:53:33.819Z,18.27
2022-08-30T01:58:37.978Z,18.27
2022-08-30T02:03:43.410Z,18.27
2022-08-30T02:08:46.821Z,18.27
2022-08-30T02:13:50.841Z,18.22
2022-08-30T02:18:56.283Z,18.14
2022-08-30T02:23:59.082Z,18.08
2022-08-30T02:29:05.451Z,17.96
2022-08-30T02:34:08.381Z,17.89
2022-08-30T02:39:13.557Z,17.86
2022-08-30T02:44:16.641Z,17.80
2022-08-30T02:49:34.959Z,17.73
2022-08-30T02:54:37.953Z,17.75
2022-08-30T02:59:44.400Z,17.75
2022-08-30T03:04:48.151Z,17.70
2022-08-30T03:09:51.218Z,17.66
2022-08-30T03:14:54.553Z,17.64
2022-08-30T03:20:02.391Z,17.68
2022-08-30T03:25:08.590Z,17.68
2022-08-30T03:30:13.216Z,17.63
2022-08-30T03:35:17.456Z,17.56
2022-08-30T03:40:22.021Z,17.53
2022-08-30T03:45:26.827Z,17.56
2022-08-30T03:50:31.080Z,17.57
2022-08-30T03:55:34.258Z,17.52
2022-08-30T04:00:37.860Z,17.43
2022-08-30T04:05:40.961Z,17.41
2022-08-30T04:10:44.291Z,17.46
2022-08-30T04:15:48.062Z,17.61
2022-08-30T04:20:51.970Z,17.71
2022-08-30T04:25:55.856Z,17.83
2022-08-30T04:30:59.228Z,18.02
2022-08-30T04:36:07.754Z,18.25
2022-08-30T04:41:17.009Z,18.38
2022-08-30T04:46:20.212Z,18.57
2022-08-30T04:51:23.089Z,18.80
2022-08-30T04:56:26.294Z,18.77
2022-08-30T05:01:32.538Z,18.89
2022-08-30T05:06:48.867Z,18.98
2022-08-30T05:11:51.822Z,18.94
2022-08-30T05:16:54.987Z,18.78
2022-08-30T05:21:57.834Z,18.60
2022-08-30T05:27:00.887Z,18.53
2022-08-30T05:32:04.674Z,18.48
2022-08-30T05:37:07.531Z,18.42
2022-08-30T05:42:10.374Z,18.39
2022-08-30T05:47:13.727Z,18.41
2022-08-30T05:52:18.296Z,18.47
2022-08-30T05:57:21.847Z,18.51
2022-08-30T06:02:24.809Z,18.56
2022-08-30T06:07:28.643Z,18.63
2022-08-30T06:12:31.693Z,18.71
2022-08-30T06:17:34.870Z,18.96
2022-08-30T06:22:39.088Z,19.18
2022-08-30T06:27:42.674Z,19.20
2022-08-30T06:32:45.492Z,19.22
2022-08-30T06:37:48.321Z,19.23
2022-08-30T06:42:51.767Z,19.28
2022-08-30T06:47:54.790Z,19.37
2022-08-30T06:53:04.622Z,19.60
2022-08-30T06:58:07.569Z,19.83
2022-08-30T07:03:10.724Z,19.97
2022-08-30T07:08:13.880Z,20.14
2022-08-30T07:13:17.614Z,20.34
2022-08-30T07:18:39.793Z,20.65
2022-08-30T07:23:44.381Z,20.89
2022-08-30T07:28:47.928Z,20.89
2022-08-30T07:33:55.416Z,20.91
2022-08-30T07:38:58.476Z,20.93
2022-08-30T07:44:02.196Z,20.96
2022-08-30T07:49:11.277Z,21.00
2022-08-30T07:54:14.833Z,21.22
2022-08-30T07:59:17.966Z,21.41
2022-08-30T08:04:21.038Z,21.66
2022-08-30T08:09:23.903Z,21.93
2022-08-30T08:14:28.513Z,22.09
2022-08-30T08:19:31.545Z,22.23
2022-08-30T08:24:34.519Z,22.35
2022-08-30T08:29:37.519Z,22.45
2022-08-30T08:34:41.625Z,22.46
2022-08-30T08:39:44.675Z,22.49
2022-08-30T08:44:51.109Z,22.44
2022-08-30T08:50:03.191Z,22.52
2022-08-30T08:55:13.959Z,22.68
2022-08-30T09:00:17.100Z,22.83
2022-08-30T09:05:26.035Z,22.88
2022-08-30T09:10:49.215Z,22.99
2022-08-30T09:15:55.416Z,22.98
2022-08-30T09:21:05.720Z,22.86
2022-08-30T09:26:09.619Z,22.78
2022-08-30T09:31:23.762Z,22.76
2022-08-30T09:36:32.342Z,22.82
2022-08-30T09:41:41.519Z,22.92
2022-08-30T09:46:51.325Z,23.19
2022-08-30T09:52:32.551Z,23.32
2022-08-30T09:57:49.177Z,23.31
2022-08-30T10:03:13.180Z,23.47
2022-08-30T10:08:27.219Z,23.71
2022-08-30T10:13:49.067Z,23.95
2022-08-30T10:19:16.886Z,24.26
2022-08-30T10:24:32.826Z,24.53
2022-08-30T10:29:43.454Z,24.86
2022-08-30T10:34:56.434Z,24.86
2022-08-30T10:40:26.065Z,24.78
2022-08-30T10:45:33.196Z,24.75
2022-08-30T10:50:42.754Z,24.94
2022-08-30T10:55:52.362Z,25.18
2022-08-30T11:01:16.905Z,25.34
2022-08-30T11:06:36.849Z,25.24
2022-08-30T11:11:58.443Z,25.08
2022-08-30T11:17:02.319Z,25.00
2022-08-30T11:22:24.559Z,24.85
2022-08-30T11:27:51.528Z,24.98
2022-08-30T11:33:26.501Z,24.98
2022-08-30T11:38:30.024Z,24.84
2022-08-30T11:43:36.700Z,24.58
2022-08-30T11:48:54.167Z,24.38
2022-08-30T11:54:23.473Z,24.61
2022-08-30T11:59:46.466Z,25.18
2022-08-30T12:04:50.666Z,25.69
2022-08-30T12:09:53.998Z,25.64
2022-08-30T12:14:57.946Z,25.66
2022-08-30T12:20:01.335Z,26.03
2022-08-30T12:25:21.374Z,26.37
2022-08-30T12:30:28.135Z,26.69
2022-08-30T12:35:31.795Z,27.06
2022-08-30T12:40:35.321Z,27.37
2022-08-30T12:45:44.291Z,27.69
2022-08-30T12:50:52.376Z,28.03
2022-08-30T12:56:02.198Z,28.39
2022-08-30T13:01:18.567Z,28.35
2022-08-30T13:06:54.069Z,27.95
2022-08-30T13:11:59.752Z,27.85
2022-08-30T13:17:18.735Z,28.09
2022-08-30T13:22:28.529Z,28.48
2022-08-30T13:27:32.506Z,28.37
2022-08-30T13:32:40.427Z,27.79
2022-08-30T13:37:50.045Z,27.31
2022-08-30T13:42:55.426Z,26.95
2022-08-30T13:48:00.326Z,27.20
2022-08-30T13:53:04.220Z,27.52
2022-08-30T13:58:07.233Z,27.63
2022-08-30T14:03:14.027Z,27.25
2022-08-30T14:19:13.101Z,27.54
2022-08-30T14:24:16.071Z,27.40
2022-08-30T14:29:26.351Z,27.11
2022-08-30T14:34:31.772Z,26.85
2022-08-30T14:39:35.846Z,26.46
2022-08-30T14:44:55.136Z,26.20
2022-08-30T14:50:01.014Z,26.04
2022-08-30T14:55:08.873Z,25.93
2022-08-30T15:00:13.787Z,25.84
2022-08-30T15:05:17.691Z,25.75
2022-08-30T15:10:21.737Z,25.68
2022-08-30T15:15:26.170Z,25.57
2022-08-30T15:20:30.670Z,25.45
2022-08-30T15:25:33.629Z,25.37
2022-08-30T15:30:36.947Z,25.27
2022-08-30T15:35:40.299Z,25.19
2022-08-30T15:40:44.756Z,25.14
2022-08-30T15:45:47.954Z,25.08
2022-08-30T15:50:58.230Z,25.03
2022-08-30T15:56:01.242Z,24.96
2022-08-30T16:01:05.815Z,24.90
2022-08-30T16:06:19.660Z,24.87
2022-08-30T16:11:25.269Z,24.88
2022-08-30T16:16:29.015Z,24.89
2022-08-30T16:21:34.191Z,24.86
2022-08-30T16:26:37.938Z,24.80
2022-08-30T16:31:44.397Z,24.74
2022-08-30T16:36:47.679Z,24.70
2022-08-30T16:41:50.780Z,24.69
2022-08-30T16:46:54.065Z,24.69
2022-08-30T16:51:57.193Z,24.64
2022-08-30T16:57:00.451Z,24.57
2022-08-30T17:02:03.760Z,24.50
2022-08-30T17:07:07.455Z,24.44
2022-08-30T17:12:17.178Z,24.39
2022-08-30T17:17:22.002Z,24.34
2022-08-30T17:22:25.146Z,24.26
2022-08-30T17:27:29.273Z,24.13
2022-08-30T17:32:32.326Z,23.99
2022-08-30T17:37:35.535Z,23.85
2022-08-30T17:42:38.565Z,23.72
2022-08-30T17:47:42.785Z,23.62
2022-08-30T17:52:46.063Z,23.56
2022-08-30T17:57:50.912Z,23.54
2022-08-30T18:02:54.966Z,23.52
2022-08-30T18:07:58.420Z,23.45
2022-08-30T18:13:03.825Z,23.33
2022-08-30T18:18:11.547Z,23.28
2022-08-30T18:23:16.906Z,23.24
2022-08-30T18:28:20.014Z,23.17
2022-08-30T18:33:25.276Z,23.10
2022-08-30T18:38:28.591Z,23.06
2022-08-30T18:43:31.441Z,23.01
2022-08-30T18:48:35.147Z,22.95
2022-08-30T18:53:38.742Z,22.87
2022-08-30T18:58:45.099Z,22.81
2022-08-30T19:03:48.064Z,22.73
2022-08-30T19:08:51.920Z,22.68
2022-08-30T19:13:55.067Z,22.63
2022-08-30T19:18:58.499Z,22.55
2022-08-30T19:24:01.749Z,22.48
2022-08-30T19:29:05.920Z,22.43
2022-08-30T19:34:09.907Z,22.40
2022-08-30T19:39:13.018Z,22.36
2022-08-30T19:44:16.168Z,22.31
2022-08-30T19:49:19.093Z,22.16
2022-08-30T19:54:22.024Z,22.03
2022-08-30T19:59:25.023Z,21.89
2022-08-30T20:04:28.136Z,21.75
2022-08-30T20:09:31.061Z,21.61
2022-08-30T20:14:34.247Z,21.51
2022-08-30T20:19:37.373Z,21.40
2022-08-30T20:24:44.007Z,21.31
2022-08-30T20:29:49.241Z,21.27
2022-08-30T20:34:53.958Z,21.24
2022-08-30T20:39:57.405Z,21.19
2022-08-30T20:45:00.455Z,21.12
2022-08-30T20:50:09.141Z,21.03
2022-08-30T20:55:18.188Z,20.99
2022-08-30T21:00:21.511Z,20.94
2022-08-30T21:05:25.411Z,20.92
2022-08-30T21:10:28.389Z,20.87
2022-08-30T21:15:37.719Z,20.83
2022-08-30T21:20:41.730Z,20.80
2022-08-30T21:25:44.877Z,20.73
2022-08-30T21:30:47.963Z,20.68
2022-08-30T21:36:10.093Z,20.62
2022-08-30T21:41:13.101Z,20.56
2022-08-30T21:46:16.885Z,20.52
2022-08-30T21:51:20.355Z,20.46
2022-08-30T21:56:23.608Z,20.38
2022-08-30T22:01:29.515Z,20.25
2022-08-30T22:06:34.659Z,20.13
2022-08-30T22:11:37.839Z,19.96
2022-08-30T22:16:42.197Z,19.83
2022-08-30T22:21:48.079Z,19.72
2022-08-30T22:26:51.719Z,19.62
2022-08-30T22:31:55.228Z,19.58
2022-08-30T22:36:58.862Z,19.58
2022-08-30T22:42:02.397Z,19.57
2022-08-30T22:47:06.101Z,19.59
2022-08-30T22:52:09.322Z,19.60
2022-08-30T22:57:15.780Z,19.57
2022-08-30T23:02:19.030Z,19.53
2022-08-30T23:07:22.625Z,19.47
2022-08-30T23:12:26.654Z,19.40
2022-08-30T23:17:29.823Z,19.34
2022-08-30T23:22:41.530Z,19.29
2022-08-30T23:28:04.942Z,19.21
2022-08-30T23:33:26.693Z,19.13
2022-08-30T23:38:48.482Z,19.11
2022-08-30T23:44:10.773Z,19.13
2022-08-30T23:49:32.402Z,19.13
2022-08-30T23:54:55.745Z,19.07
